createdAt,value
2017-06-26T04:35:11.388Z,91.50
2017-06-26T04:37:39.737Z,90.75
2017-06-26T04:40:08.149Z,90.44
2017-06-26T04:42:36.515Z,89.99
2017-06-26T04:45:04.943Z,89.28
2017-06-26T04:47:33.288Z,89.50
2017-06-26T04:50:01.650Z,89.74
2017-06-26T04:52:30.025Z,89.77
2017-06-26T04:54:58.494Z,89.33
2017-06-26T04:57:26.841Z,89.69
2017-06-26T04:59:55.200Z,88.76
2017-06-26T05:02:23.553Z,88.10
2017-06-26T05:04:51.913Z,87.51
2017-06-26T05:07:20.326Z,87.60
2017-06-26T05:09:48.652Z,88.07
2017-06-26T05:12:17.040Z,87.37
2017-06-26T05:14:45.402Z,86.65
2017-06-26T05:17:13.745Z,86.68
2017-06-26T05:19:42.106Z,86.42
2017-06-26T05:22:10.518Z,83.13
2017-06-26T05:24:38.872Z,83.49
2017-06-26T05:27:07.230Z,83.27
2017-06-26T05:29:35.605Z,81.93
2017-06-26T05:32:04.718Z,80.98
2017-06-26T05:34:33.057Z,80.31
2017-06-26T05:37:01.425Z,80.00
2017-06-26T05:39:29.761Z,81.06
2017-06-26T05:41:58.101Z,80.10
2017-06-26T05:44:26.451Z,79.69
2017-06-26T05:46:54.790Z,79.39
2017-06-26T05:49:23.134Z,79.71
2017-06-26T05:51:51.484Z,78.02
2017-06-26T05:54:19.821Z,77.69
2017-06-26T05:56:48.158Z,75.77
2017-06-26T05:59:16.522Z,77.00
2017-06-26T06:01:44.897Z,74.92
2017-06-26T06:04:13.268Z,74.89
2017-06-26T06:06:41.621Z,74.36
2017-06-26T06:09:10.025Z,73.76
2017-06-26T06:11:38.381Z,74.11
2017-06-26T06:14:06.709Z,72.40
2017-06-26T06:16:35.061Z,72.96
2017-06-26T06:19:03.510Z,72.42
2017-06-26T06:21:31.837Z,72.45
2017-06-26T06:24:00.177Z,71.64
2017-06-26T06:26:28.520Z,71.20
2017-06-26T06:28:56.878Z,69.08
2017-06-26T06:31:25.223Z,70.00
2017-06-26T06:33:53.565Z,70.36
2017-06-26T06:36:21.959Z,70.36
2017-06-26T06:38:50.290Z,70.58
2017-06-26T06:41:18.737Z,68.59
2017-06-26T06:43:47.090Z,69.00
2017-06-26T06:46:15.433Z,68.13
2017-06-26T06:48:43.797Z,66.28
2017-06-26T06:51:12.292Z,65.74
2017-06-26T06:53:40.618Z,64.99
2017-06-26T06:56:08.965Z,64.13
2017-06-26T06:58:37.303Z,63.20
2017-06-26T07:01:05.654Z,62.10
2017-06-26T07:03:33.983Z,62.42
2017-06-26T07:06:02.335Z,61.85
2017-06-26T07:08:30.700Z,60.61
2017-06-26T07:10:59.021Z,59.58
2017-06-26T07:13:27.363Z,59.58
2017-06-26T07:15:55.722Z,61.28
2017-06-26T07:18:24.059Z,62.29
2017-06-26T07:20:52.401Z,62.14
2017-06-26T07:23:20.742Z,62.61
2017-06-26T07:25:49.084Z,61.71
2017-06-26T07:28:17.413Z,62.61
2017-06-26T07:30:45.749Z,62.62
2017-06-26T07:33:14.085Z,61.96
2017-06-26T07:35:42.462Z,61.40
2017-06-26T07:38:10.792Z,61.74
2017-06-26T07:40:39.129Z,62.33
2017-06-26T07:43:07.482Z,62.69
2017-06-26T07:45:35.821Z,62.01
2017-06-26T07:48:04.153Z,60.97
2017-06-26T07:50:32.497Z,60.90
2017-06-26T07:53:00.817Z,59.12
2017-06-26T07:55:29.178Z,59.79
2017-06-26T07:57:57.532Z,58.51
2017-06-26T08:00:25.861Z,58.21
2017-06-26T08:02:54.390Z,58.52
2017-06-26T08:05:22.758Z,56.95
2017-06-26T08:07:51.104Z,56.98
2017-06-26T08:10:19.481Z,57.61
2017-06-26T08:12:47.838Z,57.32
2017-06-26T08:15:16.188Z,56.77
2017-06-26T08:17:44.521Z,56.26
2017-06-26T08:20:12.888Z,55.83
2017-06-26T08:22:41.246Z,53.61
2017-06-26T08:25:09.607Z,53.62
2017-06-26T08:27:37.937Z,54.56
2017-06-26T08:30:06.325Z,52.74
2017-06-26T08:32:34.657Z,53.60
2017-06-26T08:35:03.078Z,52.56
2017-06-26T08:37:31.410Z,53.80
2017-06-26T08:39:59.745Z,52.26
2017-06-26T08:42:28.079Z,52.37
2017-06-26T08:44:56.413Z,52.48
2017-06-26T08:47:24.741Z,49.70
2017-06-26T08:49:53.080Z,50.08
2017-06-26T08:52:21.418Z,49.78
2017-06-26T08:54:49.740Z,49.41
2017-06-26T08:57:18.089Z,49.09
2017-06-26T08:59:46.410Z,47.75
2017-06-26T09:02:14.753Z,46.52
2017-06-26T09:04:43.128Z,48.83
2017-06-26T09:07:11.464Z,47.05
2017-06-26T09:09:39.793Z,46.00
2017-06-26T09:12:08.135Z,47.91
2017-06-26T09:14:36.496Z,48.42
2017-06-26T09:17:04.850Z,44.94
2017-06-26T09:19:33.433Z,46.18
2017-06-26T09:22:01.757Z,45.17
2017-06-26T09:24:30.187Z,45.41
2017-06-26T09:26:58.509Z,44.63
2017-06-26T09:29:26.851Z,43.36
2017-06-26T09:31:55.186Z,43.94
2017-06-26T09:34:23.540Z,42.63
2017-06-26T09:36:51.849Z,44.07
2017-06-26T09:39:20.189Z,43.66
2017-06-26T09:41:48.522Z,43.38
2017-06-26T09:44:16.861Z,44.39
2017-06-26T09:46:45.190Z,44.75
2017-06-26T09:49:13.662Z,44.05
2017-06-26T09:51:42.007Z,42.72
2017-06-26T09:54:10.368Z,43.28
2017-06-26T09:56:38.706Z,42.91
2017-06-26T09:59:07.064Z,42.67
2017-06-26T10:01:35.425Z,42.21
2017-06-26T10:04:03.762Z,41.50
2017-06-26T10:06:32.090Z,43.98
2017-06-26T10:09:00.425Z,42.56
2017-06-26T10:11:28.773Z,41.95
2017-06-26T10:13:57.133Z,41.70
2017-06-26T10:16:25.484Z,42.04
2017-06-26T10:18:53.824Z,42.59
2017-06-26T10:21:22.186Z,42.13
2017-06-26T10:23:50.514Z,43.80
2017-06-26T10:26:18.862Z,41.79
2017-06-26T10:28:47.266Z,40.77
2017-06-26T10:31:15.621Z,42.69
2017-06-26T10:33:43.957Z,41.87
2017-06-26T10:36:12.308Z,41.58
2017-06-26T10:38:40.654Z,40.87
2017-06-26T10:41:09.829Z,41.78
2017-06-26T10:43:38.165Z,40.87
2017-06-26T10:46:06.493Z,41.82
2017-06-26T10:48:34.829Z,40.80
2017-06-26T10:51:03.193Z,41.11
2017-06-26T10:53:31.517Z,40.65
2017-06-26T10:55:59.856Z,40.07
2017-06-26T10:58:28.173Z,41.53
2017-06-26T11:00:56.519Z,40.42
2017-06-26T11:03:24.853Z,39.29
2017-06-26T11:05:53.189Z,40.62
2017-06-26T11:08:21.547Z,40.34
2017-06-26T11:10:49.896Z,40.06
2017-06-26T11:13:18.217Z,40.47
2017-06-26T11:15:46.560Z,38.81
2017-06-26T11:18:14.904Z,39.13
2017-06-26T11:20:43.243Z,38.73
2017-06-26T11:23:11.569Z,38.30
2017-06-26T11:25:39.916Z,39.56
2017-06-26T11:28:08.245Z,38.51
2017-06-26T11:30:36.593Z,39.14
2017-06-26T11:33:04.944Z,38.24
2017-06-26T11:35:33.273Z,40.97
2017-06-26T11:38:01.605Z,39.85
2017-06-26T11:40:29.941Z,38.55
2017-06-26T11:42:58.265Z,37.55
2017-06-26T11:45:26.684Z,37.08
2017-06-26T11:47:54.993Z,37.35
2017-06-26T11:50:23.366Z,38.34
2017-06-26T11:52:51.703Z,38.54
2017-06-26T11:55:20.312Z,37.55
2017-06-26T11:57:48.617Z,38.08
2017-06-26T12:00:17.002Z,36.10
2017-06-26T12:02:45.441Z,36.77
2017-06-26T12:05:13.796Z,37.33
2017-06-26T12:07:42.116Z,37.42
2017-06-26T12:10:10.498Z,36.50
2017-06-26T12:12:38.863Z,36.25
2017-06-26T12:15:07.249Z,36.59
2017-06-26T12:17:35.616Z,35.47
2017-06-26T12:20:04.016Z,35.06
2017-06-26T12:22:32.341Z,35.02
2017-06-26T12:25:00.711Z,35.18
2017-06-26T12:27:29.038Z,34.95
2017-06-26T12:29:57.414Z,32.92
2017-06-26T12:32:25.734Z,32.18
2017-06-26T12:34:54.125Z,30.24
2017-06-26T12:37:22.457Z,31.18
2017-06-26T12:39:50.812Z,31.44
2017-06-26T12:42:19.137Z,29.39
2017-06-26T12:44:47.475Z,27.95
2017-06-26T12:47:15.840Z,28.38
2017-06-26T12:49:44.168Z,28.75
2017-06-26T21:33:29.945Z,0.00
2017-06-26T22:42:18.796Z,0.00
